sensor_id;sensor_type;location;lat;lon;timestamp;P1;durP1;ratioP1;P2;durP2;ratioP2
73779;SDS011;62093;37.614;15.072;2022-07-11T00:02:10;4.28;;;1.85;;
73779;SDS011;62093;37.614;15.072;2022-07-11T00:04:39;3.83;;;1.83;;
73779;SDS011;62093;37.614;15.072;2022-07-11T00:07:07;4.10;;;1.90;;
73779;SDS011;62093;37.614;15.072;2022-07-11T00:09:33;4.27;;;2.07;;
73779;SDS011;62093;37.614;15.072;2022-07-11T00:11:59;3.95;;;2.03;;
73779;SDS011;62093;37.614;15.072;2022-07-11T00:14:25;3.88;;;2.30;;
73779;SDS011;62093;37.614;15.072;2022-07-11T00:16:52;4.45;;;2.20;;
73779;SDS011;62093;37.614;15.072;2022-07-11T00:19:18;3.73;;;2.10;;
73779;SDS011;62093;37.614;15.072;2022-07-11T00:21:45;3.78;;;2.00;;
73779;SDS011;62093;37.614;15.072;2022-07-11T00:24:12;4.53;;;2.10;;
73779;SDS011;62093;37.614;15.072;2022-07-11T00:26:38;4.10;;;2.15;;
73779;SDS011;62093;37.614;15.072;2022-07-11T00:29:05;4.55;;;2.13;;
73779;SDS011;62093;37.614;15.072;2022-07-11T00:31:31;3.70;;;2.00;;
73779;SDS011;62093;37.614;15.072;2022-07-11T00:33:58;4.00;;;2.10;;
73779;SDS011;62093;37.614;15.072;2022-07-11T00:36:24;3.83;;;2.22;;
73779;SDS011;62093;37.614;15.072;2022-07-11T00:38:50;4.35;;;2.38;;
73779;SDS011;62093;37.614;15.072;2022-07-11T00:41:16;4.57;;;2.13;;
73779;SDS011;62093;37.614;15.072;2022-07-11T00:43:49;4.87;;;2.80;;
73779;SDS011;62093;37.614;15.072;2022-07-11T00:46:21;4.95;;;2.90;;
73779;SDS011;62093;37.614;15.072;2022-07-11T00:48:48;4.78;;;2.90;;
73779;SDS011;62093;37.614;15.072;2022-07-11T00:51:14;4.20;;;2.45;;
73779;SDS011;62093;37.614;15.072;2022-07-11T00:53:42;4.80;;;2.78;;
73779;SDS011;62093;37.614;15.072;2022-07-11T00:56:09;5.60;;;3.33;;
73779;SDS011;62093;37.614;15.072;2022-07-11T00:58:36;5.20;;;3.20;;
73779;SDS011;62093;37.614;15.072;2022-07-11T01:01:02;7.43;;;5.07;;
73779;SDS011;62093;37.614;15.072;2022-07-11T01:03:28;4.78;;;2.50;;
73779;SDS011;62093;37.614;15.072;2022-07-11T01:05:54;4.30;;;2.40;;
73779;SDS011;62093;37.614;15.072;2022-07-11T01:08:20;4.00;;;2.30;;
73779;SDS011;62093;37.614;15.072;2022-07-11T01:10:46;4.30;;;2.45;;
73779;SDS011;62093;37.614;15.072;2022-07-11T01:13:12;4.40;;;2.58;;
73779;SDS011;62093;37.614;15.072;2022-07-11T01:15:38;4.83;;;2.57;;
73779;SDS011;62093;37.614;15.072;2022-07-11T01:18:04;4.38;;;2.38;;
73779;SDS011;62093;37.614;15.072;2022-07-11T01:20:30;4.22;;;2.30;;
73779;SDS011;62093;37.614;15.072;2022-07-11T01:23:17;4.53;;;2.50;;
73779;SDS011;62093;37.614;15.072;2022-07-11T01:25:42;4.00;;;2.30;;
73779;SDS011;62093;37.614;15.072;2022-07-11T01:28:08;5.18;;;2.60;;
73779;SDS011;62093;37.614;15.072;2022-07-11T01:30:34;4.30;;;2.20;;
73779;SDS011;62093;37.614;15.072;2022-07-11T01:33:00;5.18;;;2.53;;
73779;SDS011;62093;37.614;15.072;2022-07-11T01:35:26;4.40;;;2.27;;
73779;SDS011;62093;37.614;15.072;2022-07-11T01:37:54;4.32;;;2.40;;
73779;SDS011;62093;37.614;15.072;2022-07-11T01:40:19;4.18;;;2.30;;
73779;SDS011;62093;37.614;15.072;2022-07-11T01:42:46;3.97;;;2.10;;
73779;SDS011;62093;37.614;15.072;2022-07-11T01:45:12;4.35;;;2.13;;
73779;SDS011;62093;37.614;15.072;2022-07-11T01:47:38;4.82;;;2.30;;
73779;SDS011;62093;37.614;15.072;2022-07-11T01:50:05;4.80;;;2.30;;
73779;SDS011;62093;37.614;15.072;2022-07-11T01:52:31;5.22;;;2.10;;
73779;SDS011;62093;37.614;15.072;2022-07-11T01:54:57;4.97;;;2.47;;
73779;SDS011;62093;37.614;15.072;2022-07-11T01:57:23;3.80;;;2.00;;
73779;SDS011;62093;37.614;15.072;2022-07-11T01:59:49;4.20;;;2.50;;
73779;SDS011;62093;37.614;15.072;2022-07-11T02:02:15;4.50;;;2.40;;
73779;SDS011;62093;37.614;15.072;2022-07-11T02:04:41;4.82;;;3.13;;
73779;SDS011;62093;37.614;15.072;2022-07-11T02:07:07;5.47;;;3.77;;
73779;SDS011;62093;37.614;15.072;2022-07-11T02:09:35;4.95;;;3.20;;
73779;SDS011;62093;37.614;15.072;2022-07-11T02:12:00;4.70;;;2.60;;
73779;SDS011;62093;37.614;15.072;2022-07-11T02:14:26;5.77;;;4.17;;
73779;SDS011;62093;37.614;15.072;2022-07-11T02:16:52;5.53;;;3.47;;
73779;SDS011;62093;37.614;15.072;2022-07-11T02:19:18;4.18;;;2.38;;
73779;SDS011;62093;37.614;15.072;2022-07-11T02:21:44;4.50;;;2.70;;
73779;SDS011;62093;37.614;15.072;2022-07-11T02:24:10;5.18;;;3.28;;
73779;SDS011;62093;37.614;15.072;2022-07-11T02:26:36;8.73;;;5.90;;
73779;SDS011;62093;37.614;15.072;2022-07-11T02:29:01;7.18;;;4.93;;
73779;SDS011;62093;37.614;15.072;2022-07-11T02:31:27;5.45;;;3.42;;
73779;SDS011;62093;37.614;15.072;2022-07-11T02:33:53;5.00;;;2.95;;
73779;SDS011;62093;37.614;15.072;2022-07-11T02:36:19;4.93;;;2.77;;
73779;SDS011;62093;37.614;15.072;2022-07-11T02:38:45;5.17;;;2.97;;
73779;SDS011;62093;37.614;15.072;2022-07-11T02:41:11;5.43;;;2.70;;
73779;SDS011;62093;37.614;15.072;2022-07-11T02:43:37;4.57;;;2.80;;
73779;SDS011;62093;37.614;15.072;2022-07-11T02:46:04;4.30;;;2.50;;
73779;SDS011;62093;37.614;15.072;2022-07-11T02:48:31;4.57;;;2.47;;
73779;SDS011;62093;37.614;15.072;2022-07-11T02:50:57;4.40;;;2.97;;
73779;SDS011;62093;37.614;15.072;2022-07-11T02:53:23;5.03;;;2.83;;
73779;SDS011;62093;37.614;15.072;2022-07-11T02:55:49;4.55;;;2.50;;
73779;SDS011;62093;37.614;15.072;2022-07-11T02:58:15;4.30;;;2.70;;
73779;SDS011;62093;37.614;15.072;2022-07-11T03:00:41;4.60;;;2.70;;
73779;SDS011;62093;37.614;15.072;2022-07-11T03:03:07;4.45;;;2.70;;
73779;SDS011;62093;37.614;15.072;2022-07-11T03:05:33;4.45;;;2.40;;
73779;SDS011;62093;37.614;15.072;2022-07-11T03:07:59;4.30;;;2.40;;
73779;SDS011;62093;37.614;15.072;2022-07-11T03:10:24;4.97;;;2.83;;
73779;SDS011;62093;37.614;15.072;2022-07-11T03:12:51;4.40;;;2.80;;
73779;SDS011;62093;37.614;15.072;2022-07-11T03:15:17;4.50;;;2.65;;
73779;SDS011;62093;37.614;15.072;2022-07-11T03:17:43;4.53;;;2.58;;
73779;SDS011;62093;37.614;15.072;2022-07-11T03:20:09;4.37;;;2.60;;
73779;SDS011;62093;37.614;15.072;2022-07-11T03:22:36;4.63;;;2.70;;
73779;SDS011;62093;37.614;15.072;2022-07-11T03:25:03;4.63;;;2.65;;
73779;SDS011;62093;37.614;15.072;2022-07-11T03:27:32;5.20;;;2.65;;
73779;SDS011;62093;37.614;15.072;2022-07-11T03:29:59;4.13;;;2.45;;
73779;SDS011;62093;37.614;15.072;2022-07-11T03:32:25;4.60;;;2.90;;
73779;SDS011;62093;37.614;15.072;2022-07-11T03:34:51;4.30;;;2.50;;
73779;SDS011;62093;37.614;15.072;2022-07-11T03:37:35;4.60;;;2.65;;
73779;SDS011;62093;37.614;15.072;2022-07-11T03:40:01;4.45;;;2.80;;
73779;SDS011;62093;37.614;15.072;2022-07-11T03:42:27;5.30;;;3.10;;
73779;SDS011;62093;37.614;15.072;2022-07-11T03:44:53;4.95;;;2.83;;
73779;SDS011;62093;37.614;15.072;2022-07-11T03:47:19;4.80;;;2.92;;
73779;SDS011;62093;37.614;15.072;2022-07-11T03:49:45;4.97;;;2.77;;
73779;SDS011;62093;37.614;15.072;2022-07-11T03:52:13;4.63;;;2.60;;
73779;SDS011;62093;37.614;15.072;2022-07-11T03:54:39;4.70;;;2.97;;
73779;SDS011;62093;37.614;15.072;2022-07-11T03:57:05;5.15;;;2.65;;
73779;SDS011;62093;37.614;15.072;2022-07-11T03:59:31;4.90;;;2.63;;
73779;SDS011;62093;37.614;15.072;2022-07-11T04:01:57;5.28;;;3.28;;
73779;SDS011;62093;37.614;15.072;2022-07-11T04:04:23;4.75;;;2.88;;
73779;SDS011;62093;37.614;15.072;2022-07-11T04:06:49;4.97;;;3.03;;
73779;SDS011;62093;37.614;15.072;2022-07-11T04:09:15;4.40;;;2.50;;
73779;SDS011;62093;37.614;15.072;2022-07-11T04:11:41;4.93;;;3.08;;
73779;SDS011;62093;37.614;15.072;2022-07-11T04:14:07;4.85;;;2.70;;
73779;SDS011;62093;37.614;15.072;2022-07-11T04:16:34;4.37;;;2.60;;
73779;SDS011;62093;37.614;15.072;2022-07-11T04:19:00;4.97;;;2.95;;
73779;SDS011;62093;37.614;15.072;2022-07-11T04:21:25;4.60;;;2.78;;
73779;SDS011;62093;37.614;15.072;2022-07-11T04:23:51;4.73;;;2.93;;
73779;SDS011;62093;37.614;15.072;2022-07-11T04:26:17;4.65;;;2.90;;
73779;SDS011;62093;37.614;15.072;2022-07-11T04:28:43;4.43;;;2.20;;
73779;SDS011;62093;37.614;15.072;2022-07-11T04:31:09;5.40;;;2.92;;
73779;SDS011;62093;37.614;15.072;2022-07-11T04:33:36;4.70;;;2.77;;
73779;SDS011;62093;37.614;15.072;2022-07-11T04:36:01;4.78;;;2.70;;
73779;SDS011;62093;37.614;15.072;2022-07-11T04:38:28;4.15;;;2.60;;
73779;SDS011;62093;37.614;15.072;2022-07-11T04:40:53;4.50;;;2.60;;
73779;SDS011;62093;37.614;15.072;2022-07-11T04:43:19;4.60;;;2.67;;
73779;SDS011;62093;37.614;15.072;2022-07-11T04:45:45;4.80;;;2.90;;
73779;SDS011;62093;37.614;15.072;2022-07-11T04:48:11;4.32;;;2.75;;
73779;SDS011;62093;37.614;15.072;2022-07-11T04:50:37;4.40;;;2.47;;
73779;SDS011;62093;37.614;15.072;2022-07-11T04:53:03;4.95;;;2.83;;
73779;SDS011;62093;37.614;15.072;2022-07-11T04:55:29;4.50;;;2.50;;
73779;SDS011;62093;37.614;15.072;2022-07-11T04:57:55;4.20;;;2.70;;
73779;SDS011;62093;37.614;15.072;2022-07-11T05:00:21;4.90;;;3.13;;
73779;SDS011;62093;37.614;15.072;2022-07-11T05:02:47;5.18;;;2.65;;
73779;SDS011;62093;37.614;15.072;2022-07-11T05:05:13;4.60;;;3.00;;
73779;SDS011;62093;37.614;15.072;2022-07-11T05:07:39;4.70;;;2.50;;
73779;SDS011;62093;37.614;15.072;2022-07-11T05:10:05;4.70;;;2.60;;
73779;SDS011;62093;37.614;15.072;2022-07-11T05:12:32;4.20;;;2.60;;
73779;SDS011;62093;37.614;15.072;2022-07-11T05:14:58;5.05;;;2.75;;
73779;SDS011;62093;37.614;15.072;2022-07-11T05:17:24;4.25;;;2.50;;
73779;SDS011;62093;37.614;15.072;2022-07-11T05:19:53;4.47;;;2.40;;
73779;SDS011;62093;37.614;15.072;2022-07-11T05:22:19;4.20;;;2.55;;
73779;SDS011;62093;37.614;15.072;2022-07-11T05:24:45;4.65;;;2.85;;
73779;SDS011;62093;37.614;15.072;2022-07-11T05:27:11;4.32;;;2.50;;
73779;SDS011;62093;37.614;15.072;2022-07-11T05:29:37;4.67;;;2.90;;
73779;SDS011;62093;37.614;15.072;2022-07-11T05:32:03;4.40;;;2.65;;
73779;SDS011;62093;37.614;15.072;2022-07-11T05:34:29;4.72;;;2.60;;
73779;SDS011;62093;37.614;15.072;2022-07-11T05:36:55;4.60;;;2.53;;
73779;SDS011;62093;37.614;15.072;2022-07-11T05:39:20;4.15;;;2.55;;
73779;SDS011;62093;37.614;15.072;2022-07-11T05:41:46;4.10;;;2.50;;
73779;SDS011;62093;37.614;15.072;2022-07-11T05:44:15;4.10;;;2.30;;
73779;SDS011;62093;37.614;15.072;2022-07-11T05:46:43;4.72;;;2.65;;
73779;SDS011;62093;37.614;15.072;2022-07-11T05:49:09;4.70;;;2.20;;
73779;SDS011;62093;37.614;15.072;2022-07-11T05:51:35;4.47;;;2.60;;
73779;SDS011;62093;37.614;15.072;2022-07-11T05:54:02;4.10;;;2.40;;
73779;SDS011;62093;37.614;15.072;2022-07-11T05:56:28;4.28;;;1.80;;
73779;SDS011;62093;37.614;15.072;2022-07-11T05:58:53;4.00;;;2.40;;
73779;SDS011;62093;37.614;15.072;2022-07-11T06:01:20;3.75;;;2.00;;
73779;SDS011;62093;37.614;15.072;2022-07-11T06:03:47;4.40;;;2.40;;
73779;SDS011;62093;37.614;15.072;2022-07-11T06:06:13;4.20;;;2.50;;
73779;SDS011;62093;37.614;15.072;2022-07-11T06:08:39;4.47;;;2.15;;
73779;SDS011;62093;37.614;15.072;2022-07-11T06:11:05;4.68;;;2.50;;
73779;SDS011;62093;37.614;15.072;2022-07-11T06:13:31;4.60;;;2.50;;
73779;SDS011;62093;37.614;15.072;2022-07-11T06:15:58;3.90;;;2.25;;
73779;SDS011;62093;37.614;15.072;2022-07-11T06:18:24;4.30;;;2.25;;
73779;SDS011;62093;37.614;15.072;2022-07-11T06:20:50;4.55;;;2.45;;
73779;SDS011;62093;37.614;15.072;2022-07-11T06:23:16;4.30;;;2.50;;
73779;SDS011;62093;37.614;15.072;2022-07-11T06:25:42;4.30;;;2.33;;
73779;SDS011;62093;37.614;15.072;2022-07-11T06:28:08;4.65;;;2.50;;
73779;SDS011;62093;37.614;15.072;2022-07-11T06:30:34;4.18;;;2.30;;
73779;SDS011;62093;37.614;15.072;2022-07-11T06:33:02;4.60;;;2.23;;
73779;SDS011;62093;37.614;15.072;2022-07-11T06:35:29;4.47;;;2.30;;
73779;SDS011;62093;37.614;15.072;2022-07-11T06:37:55;4.30;;;2.30;;
73779;SDS011;62093;37.614;15.072;2022-07-11T06:40:24;4.28;;;2.10;;
73779;SDS011;62093;37.614;15.072;2022-07-11T06:42:50;4.10;;;2.40;;
73779;SDS011;62093;37.614;15.072;2022-07-11T06:45:15;4.53;;;2.33;;
73779;SDS011;62093;37.614;15.072;2022-07-11T06:47:41;4.30;;;2.28;;
73779;SDS011;62093;37.614;15.072;2022-07-11T06:50:08;4.50;;;2.47;;
73779;SDS011;62093;37.614;15.072;2022-07-11T06:52:34;4.80;;;2.70;;
73779;SDS011;62093;37.614;15.072;2022-07-11T06:55:00;4.60;;;2.83;;
73779;SDS011;62093;37.614;15.072;2022-07-11T06:57:26;4.68;;;2.63;;
73779;SDS011;62093;37.614;15.072;2022-07-11T06:59:52;4.07;;;2.40;;
73779;SDS011;62093;37.614;15.072;2022-07-11T07:02:18;4.50;;;2.67;;
73779;SDS011;62093;37.614;15.072;2022-07-11T07:04:44;4.75;;;2.88;;
73779;SDS011;62093;37.614;15.072;2022-07-11T07:07:10;4.88;;;2.45;;
73779;SDS011;62093;37.614;15.072;2022-07-11T07:09:36;4.97;;;2.60;;
73779;SDS011;62093;37.614;15.072;2022-07-11T07:12:02;4.85;;;2.78;;
73779;SDS011;62093;37.614;15.072;2022-07-11T07:14:28;4.32;;;2.40;;
73779;SDS011;62093;37.614;15.072;2022-07-11T07:16:53;4.77;;;2.80;;
73779;SDS011;62093;37.614;15.072;2022-07-11T07:19:19;4.53;;;2.40;;
73779;SDS011;62093;37.614;15.072;2022-07-11T07:21:46;4.10;;;2.30;;
73779;SDS011;62093;37.614;15.072;2022-07-11T07:24:13;4.57;;;2.60;;
73779;SDS011;62093;37.614;15.072;2022-07-11T07:26:38;4.00;;;2.30;;
73779;SDS011;62093;37.614;15.072;2022-07-11T07:29:04;4.18;;;2.33;;
73779;SDS011;62093;37.614;15.072;2022-07-11T07:31:30;4.60;;;2.30;;
73779;SDS011;62093;37.614;15.072;2022-07-11T07:33:56;4.43;;;2.40;;
73779;SDS011;62093;37.614;15.072;2022-07-11T07:36:22;4.32;;;2.55;;
73779;SDS011;62093;37.614;15.072;2022-07-11T07:38:48;4.53;;;2.33;;
73779;SDS011;62093;37.614;15.072;2022-07-11T07:41:14;4.20;;;2.27;;
73779;SDS011;62093;37.614;15.072;2022-07-11T07:43:41;4.00;;;2.28;;
73779;SDS011;62093;37.614;15.072;2022-07-11T07:46:07;4.05;;;2.40;;
73779;SDS011;62093;37.614;15.072;2022-07-11T07:48:36;4.28;;;2.13;;
73779;SDS011;62093;37.614;15.072;2022-07-11T07:51:06;4.30;;;2.10;;
73779;SDS011;62093;37.614;15.072;2022-07-11T07:53:32;4.87;;;2.53;;
73779;SDS011;62093;37.614;15.072;2022-07-11T07:55:58;4.00;;;2.17;;
73779;SDS011;62093;37.614;15.072;2022-07-11T07:58:24;4.20;;;2.50;;
73779;SDS011;62093;37.614;15.072;2022-07-11T08:00:50;4.43;;;2.30;;
73779;SDS011;62093;37.614;15.072;2022-07-11T08:03:34;4.07;;;1.95;;
73779;SDS011;62093;37.614;15.072;2022-07-11T08:06:00;4.18;;;2.05;;
73779;SDS011;62093;37.614;15.072;2022-07-11T08:08:26;4.03;;;2.33;;
73779;SDS011;62093;37.614;15.072;2022-07-11T08:10:51;3.93;;;2.20;;
73779;SDS011;62093;37.614;15.072;2022-07-11T08:13:18;4.03;;;2.30;;
73779;SDS011;62093;37.614;15.072;2022-07-11T08:15:45;4.32;;;2.28;;
73779;SDS011;62093;37.614;15.072;2022-07-11T08:18:12;4.60;;;2.20;;
73779;SDS011;62093;37.614;15.072;2022-07-11T08:20:38;4.28;;;2.20;;
73779;SDS011;62093;37.614;15.072;2022-07-11T08:23:04;4.13;;;2.10;;
73779;SDS011;62093;37.614;15.072;2022-07-11T08:25:30;4.72;;;2.38;;
73779;SDS011;62093;37.614;15.072;2022-07-11T08:27:56;4.70;;;2.47;;
73779;SDS011;62093;37.614;15.072;2022-07-11T08:30:22;4.07;;;2.13;;
73779;SDS011;62093;37.614;15.072;2022-07-11T08:32:47;4.75;;;2.50;;
73779;SDS011;62093;37.614;15.072;2022-07-11T08:35:13;4.53;;;2.50;;
73779;SDS011;62093;37.614;15.072;2022-07-11T08:37:42;3.67;;;1.83;;
73779;SDS011;62093;37.614;15.072;2022-07-11T08:40:09;4.28;;;2.45;;
73779;SDS011;62093;37.614;15.072;2022-07-11T08:42:44;4.40;;;2.30;;
73779;SDS011;62093;37.614;15.072;2022-07-11T08:45:11;4.10;;;2.40;;
73779;SDS011;62093;37.614;15.072;2022-07-11T08:47:37;4.05;;;2.38;;
73779;SDS011;62093;37.614;15.072;2022-07-11T08:50:04;4.40;;;2.60;;
73779;SDS011;62093;37.614;15.072;2022-07-11T08:52:31;4.20;;;2.33;;
73779;SDS011;62093;37.614;15.072;2022-07-11T08:54:58;4.30;;;2.55;;
73779;SDS011;62093;37.614;15.072;2022-07-11T08:57:24;4.20;;;2.55;;
73779;SDS011;62093;37.614;15.072;2022-07-11T08:59:53;4.20;;;2.33;;
73779;SDS011;62093;37.614;15.072;2022-07-11T09:02:21;4.27;;;2.67;;
73779;SDS011;62093;37.614;15.072;2022-07-11T09:04:49;4.30;;;2.58;;
73779;SDS011;62093;37.614;15.072;2022-07-11T09:07:15;3.80;;;2.10;;
73779;SDS011;62093;37.614;15.072;2022-07-11T09:09:41;4.50;;;2.70;;
73779;SDS011;62093;37.614;15.072;2022-07-11T09:12:10;4.10;;;2.50;;
73779;SDS011;62093;37.614;15.072;2022-07-11T09:14:38;3.72;;;2.17;;
73779;SDS011;62093;37.614;15.072;2022-07-11T09:17:04;3.97;;;2.22;;
73779;SDS011;62093;37.614;15.072;2022-07-11T09:19:34;4.13;;;2.87;;
73779;SDS011;62093;37.614;15.072;2022-07-11T09:22:11;4.30;;;2.67;;
73779;SDS011;62093;37.614;15.072;2022-07-11T09:27:49;4.00;;;2.40;;
73779;SDS011;62093;37.614;15.072;2022-07-11T09:30:38;4.43;;;2.70;;
73779;SDS011;62093;37.614;15.072;2022-07-11T09:33:09;4.57;;;2.40;;
73779;SDS011;62093;37.614;15.072;2022-07-11T09:35:38;4.10;;;2.38;;
73779;SDS011;62093;37.614;15.072;2022-07-11T09:38:07;4.05;;;2.22;;
73779;SDS011;62093;37.614;15.072;2022-07-11T09:40:34;4.30;;;2.30;;
73779;SDS011;62093;37.614;15.072;2022-07-11T09:43:01;4.10;;;2.40;;
73779;SDS011;62093;37.614;15.072;2022-07-11T09:45:28;3.70;;;2.10;;
73779;SDS011;62093;37.614;15.072;2022-07-11T09:47:56;4.00;;;2.50;;
73779;SDS011;62093;37.614;15.072;2022-07-11T09:50:32;4.18;;;2.25;;
73779;SDS011;62093;37.614;15.072;2022-07-11T09:53:01;4.20;;;2.30;;
73779;SDS011;62093;37.614;15.072;2022-07-11T09:55:31;4.30;;;2.40;;
73779;SDS011;62093;37.614;15.072;2022-07-11T09:57:58;4.50;;;2.78;;
73779;SDS011;62093;37.614;15.072;2022-07-11T10:00:24;4.10;;;2.20;;
73779;SDS011;62093;37.614;15.072;2022-07-11T10:02:53;4.20;;;2.45;;
73779;SDS011;62093;37.614;15.072;2022-07-11T10:05:21;4.00;;;2.20;;
73779;SDS011;62093;37.614;15.072;2022-07-11T10:07:47;4.00;;;2.20;;
73779;SDS011;62093;37.614;15.072;2022-07-11T10:10:13;4.93;;;2.88;;
73779;SDS011;62093;37.614;15.072;2022-07-11T10:12:39;5.20;;;2.88;;
73779;SDS011;62093;37.614;15.072;2022-07-11T10:15:08;5.57;;;2.60;;
73779;SDS011;62093;37.614;15.072;2022-07-11T10:26:08;7.90;;;3.50;;
73779;SDS011;62093;37.614;15.072;2022-07-11T10:28:49;10.20;;;3.87;;
73779;SDS011;62093;37.614;15.072;2022-07-11T10:31:23;8.88;;;3.50;;
73779;SDS011;62093;37.614;15.072;2022-07-11T10:34:09;8.45;;;3.30;;
73779;SDS011;62093;37.614;15.072;2022-07-11T10:36:41;6.80;;;3.45;;
73779;SDS011;62093;37.614;15.072;2022-07-11T10:39:20;24.55;;;4.22;;
73779;SDS011;62093;37.614;15.072;2022-07-11T10:41:50;8.33;;;3.00;;
73779;SDS011;62093;37.614;15.072;2022-07-11T10:44:17;6.63;;;2.90;;
73779;SDS011;62093;37.614;15.072;2022-07-11T10:46:43;6.38;;;3.22;;
73779;SDS011;62093;37.614;15.072;2022-07-11T10:56:52;6.93;;;3.50;;
73779;SDS011;62093;37.614;15.072;2022-07-11T10:59:21;6.18;;;2.90;;
73779;SDS011;62093;37.614;15.072;2022-07-11T11:02:04;5.53;;;3.15;;
73779;SDS011;62093;37.614;15.072;2022-07-11T11:10:04;5.88;;;3.25;;
73779;SDS011;62093;37.614;15.072;2022-07-11T11:15:31;5.40;;;3.20;;
73779;SDS011;62093;37.614;15.072;2022-07-11T11:17:57;8.63;;;3.42;;
73779;SDS011;62093;37.614;15.072;2022-07-11T11:20:43;9.00;;;3.10;;
73779;SDS011;62093;37.614;15.072;2022-07-11T11:23:09;12.75;;;4.20;;
73779;SDS011;62093;37.614;15.072;2022-07-11T11:25:36;14.18;;;4.18;;
73779;SDS011;62093;37.614;15.072;2022-07-11T11:28:03;8.00;;;3.90;;
73779;SDS011;62093;37.614;15.072;2022-07-11T11:30:32;7.73;;;3.30;;
73779;SDS011;62093;37.614;15.072;2022-07-11T11:32:59;7.43;;;3.40;;
73779;SDS011;62093;37.614;15.072;2022-07-11T11:35:25;8.95;;;3.70;;
73779;SDS011;62093;37.614;15.072;2022-07-11T11:37:51;8.20;;;3.13;;
73779;SDS011;62093;37.614;15.072;2022-07-11T11:40:19;6.88;;;3.38;;
73779;SDS011;62093;37.614;15.072;2022-07-11T11:42:45;7.67;;;3.77;;
73779;SDS011;62093;37.614;15.072;2022-07-11T11:45:11;6.68;;;3.35;;
73779;SDS011;62093;37.614;15.072;2022-07-11T11:47:46;5.82;;;3.13;;
73779;SDS011;62093;37.614;15.072;2022-07-11T11:50:14;6.25;;;3.30;;
73779;SDS011;62093;37.614;15.072;2022-07-11T11:52:40;7.23;;;3.67;;
73779;SDS011;62093;37.614;15.072;2022-07-11T11:55:06;6.38;;;3.20;;
73779;SDS011;62093;37.614;15.072;2022-07-11T11:57:34;6.88;;;3.63;;
73779;SDS011;62093;37.614;15.072;2022-07-11T12:00:00;6.57;;;3.60;;
73779;SDS011;62093;37.614;15.072;2022-07-11T12:02:27;6.27;;;3.27;;
73779;SDS011;62093;37.614;15.072;2022-07-11T12:04:55;6.40;;;3.05;;
73779;SDS011;62093;37.614;15.072;2022-07-11T12:07:26;7.10;;;3.38;;
73779;SDS011;62093;37.614;15.072;2022-07-11T12:09:55;6.25;;;3.38;;
73779;SDS011;62093;37.614;15.072;2022-07-11T12:12:28;6.45;;;3.28;;
73779;SDS011;62093;37.614;15.072;2022-07-11T12:15:25;6.03;;;3.07;;
73779;SDS011;62093;37.614;15.072;2022-07-11T12:17:55;5.38;;;3.03;;
73779;SDS011;62093;37.614;15.072;2022-07-11T12:23:07;6.47;;;3.30;;
73779;SDS011;62093;37.614;15.072;2022-07-11T12:25:34;6.53;;;3.60;;
73779;SDS011;62093;37.614;15.072;2022-07-11T12:28:00;6.07;;;3.03;;
73779;SDS011;62093;37.614;15.072;2022-07-11T12:30:26;6.95;;;3.38;;
73779;SDS011;62093;37.614;15.072;2022-07-11T12:33:02;6.25;;;3.45;;
73779;SDS011;62093;37.614;15.072;2022-07-11T12:35:28;7.32;;;3.10;;
73779;SDS011;62093;37.614;15.072;2022-07-11T12:37:54;5.60;;;3.20;;
73779;SDS011;62093;37.614;15.072;2022-07-11T12:40:20;5.87;;;3.33;;
73779;SDS011;62093;37.614;15.072;2022-07-11T12:42:47;7.22;;;3.40;;
73779;SDS011;62093;37.614;15.072;2022-07-11T12:45:13;5.82;;;2.95;;
73779;SDS011;62093;37.614;15.072;2022-07-11T12:47:45;8.98;;;3.45;;
73779;SDS011;62093;37.614;15.072;2022-07-11T12:52:48;5.72;;;2.97;;
73779;SDS011;62093;37.614;15.072;2022-07-11T12:55:31;7.90;;;3.63;;
73779;SDS011;62093;37.614;15.072;2022-07-11T12:58:00;5.95;;;3.28;;
73779;SDS011;62093;37.614;15.072;2022-07-11T13:00:26;5.47;;;3.03;;
73779;SDS011;62093;37.614;15.072;2022-07-11T13:02:52;8.50;;;3.53;;
73779;SDS011;62093;37.614;15.072;2022-07-11T13:05:18;5.13;;;3.10;;
73779;SDS011;62093;37.614;15.072;2022-07-11T13:07:44;5.25;;;3.42;;
73779;SDS011;62093;37.614;15.072;2022-07-11T13:10:39;6.43;;;3.40;;
73779;SDS011;62093;37.614;15.072;2022-07-11T13:13:19;6.10;;;3.30;;
73779;SDS011;62093;37.614;15.072;2022-07-11T13:15:46;5.90;;;3.33;;
73779;SDS011;62093;37.614;15.072;2022-07-11T13:18:13;5.88;;;3.10;;
73779;SDS011;62093;37.614;15.072;2022-07-11T13:20:40;6.95;;;3.30;;
73779;SDS011;62093;37.614;15.072;2022-07-11T13:23:06;7.18;;;3.38;;
73779;SDS011;62093;37.614;15.072;2022-07-11T13:25:33;5.13;;;3.22;;
73779;SDS011;62093;37.614;15.072;2022-07-11T13:27:59;6.13;;;3.20;;
73779;SDS011;62093;37.614;15.072;2022-07-11T13:30:26;6.60;;;3.58;;
73779;SDS011;62093;37.614;15.072;2022-07-11T13:32:56;5.13;;;3.13;;
73779;SDS011;62093;37.614;15.072;2022-07-11T13:35:23;4.72;;;3.20;;
73779;SDS011;62093;37.614;15.072;2022-07-11T13:37:49;5.73;;;3.43;;
73779;SDS011;62093;37.614;15.072;2022-07-11T13:40:16;6.47;;;3.60;;
73779;SDS011;62093;37.614;15.072;2022-07-11T13:42:44;5.40;;;3.20;;
73779;SDS011;62093;37.614;15.072;2022-07-11T13:45:12;6.10;;;3.60;;
73779;SDS011;62093;37.614;15.072;2022-07-11T13:47:39;5.85;;;3.25;;
73779;SDS011;62093;37.614;15.072;2022-07-11T13:50:05;5.45;;;3.70;;
73779;SDS011;62093;37.614;15.072;2022-07-11T13:52:32;5.20;;;3.03;;
73779;SDS011;62093;37.614;15.072;2022-07-11T13:54:58;5.60;;;3.58;;
73779;SDS011;62093;37.614;15.072;2022-07-11T13:57:24;6.53;;;3.30;;
73779;SDS011;62093;37.614;15.072;2022-07-11T13:59:51;4.95;;;3.22;;
73779;SDS011;62093;37.614;15.072;2022-07-11T14:02:17;5.20;;;3.30;;
73779;SDS011;62093;37.614;15.072;2022-07-11T14:04:43;6.00;;;3.47;;
73779;SDS011;62093;37.614;15.072;2022-07-11T14:07:09;5.93;;;4.10;;
73779;SDS011;62093;37.614;15.072;2022-07-11T14:09:37;4.57;;;2.88;;
73779;SDS011;62093;37.614;15.072;2022-07-11T14:12:04;6.22;;;3.20;;
73779;SDS011;62093;37.614;15.072;2022-07-11T14:14:30;4.82;;;2.95;;
73779;SDS011;62093;37.614;15.072;2022-07-11T14:16:58;6.53;;;2.93;;
73779;SDS011;62093;37.614;15.072;2022-07-11T14:19:25;5.65;;;2.97;;
73779;SDS011;62093;37.614;15.072;2022-07-11T14:21:52;5.30;;;3.17;;
73779;SDS011;62093;37.614;15.072;2022-07-11T14:24:19;5.88;;;3.17;;
73779;SDS011;62093;37.614;15.072;2022-07-11T14:26:45;6.35;;;3.22;;
73779;SDS011;62093;37.614;15.072;2022-07-11T14:29:12;5.27;;;3.53;;
73779;SDS011;62093;37.614;15.072;2022-07-11T14:31:39;5.00;;;3.35;;
73779;SDS011;62093;37.614;15.072;2022-07-11T14:34:05;5.18;;;3.40;;
73779;SDS011;62093;37.614;15.072;2022-07-11T14:36:31;5.03;;;3.17;;
73779;SDS011;62093;37.614;15.072;2022-07-11T14:38:57;4.90;;;2.90;;
73779;SDS011;62093;37.614;15.072;2022-07-11T14:41:23;5.22;;;3.42;;
73779;SDS011;62093;37.614;15.072;2022-07-11T14:43:49;5.47;;;2.90;;
73779;SDS011;62093;37.614;15.072;2022-07-11T14:46:15;4.60;;;2.83;;
73779;SDS011;62093;37.614;15.072;2022-07-11T14:48:41;5.27;;;2.90;;
73779;SDS011;62093;37.614;15.072;2022-07-11T14:51:08;5.20;;;3.33;;
73779;SDS011;62093;37.614;15.072;2022-07-11T14:53:35;7.05;;;3.53;;
73779;SDS011;62093;37.614;15.072;2022-07-11T14:56:04;5.85;;;3.30;;
73779;SDS011;62093;37.614;15.072;2022-07-11T14:58:30;5.95;;;3.15;;
73779;SDS011;62093;37.614;15.072;2022-07-11T15:00:58;5.93;;;2.90;;
73779;SDS011;62093;37.614;15.072;2022-07-11T15:03:24;5.35;;;3.13;;
73779;SDS011;62093;37.614;15.072;2022-07-11T15:06:09;5.40;;;3.47;;
73779;SDS011;62093;37.614;15.072;2022-07-11T15:08:37;5.22;;;2.83;;